Oski — WYD3004 — position and weather

sailwx.info

Track history (hours):
 
Tides and Currents Weather Stations Pressure Air Temp Water Temp Dewpoint Dewpoint Depression Visibility Wind Speed Wind Dir Waves Ship Positions

Oski

Owner: BLUE & GOLD FLEET, SAN FRANCISCO, CA. More information available from US FCC via Universal Licensing System and Coast Guard Vessel Documentation Center.

Last reported at 2017-Oct-17 02:27 UTC. Time now 2017-Oct-17 22:26 UTC.
Position N 37°49' W 122°25'.

Length 24 m; draft 2 m.

Type: Passenger vessel. MMSI: 366985320.

Date/timePositionNaut miles runAvg speedWind from/ knotsBaromVisibWave heightAir tempDewpointWater temp
2017-Oct-17 02:27N 37°49' W 122°25'2 5.3
2017-Oct-17 02:00N 37°49' W 122°27'2 4.7
2017-Oct-17 01:30N 37°49' W 122°25'0 0.0
2017-Oct-17 01:00N 37°49' W 122°25'0 0.0
2017-Oct-17 00:30N 37°49' W 122°25'2 4.3
2017-Oct-17 00:01N 37°49' W 122°27'2 4.3
2017-Oct-16 23:30N 37°49' W 122°25'1 1.9
2017-Oct-16 23:00N 37°49' W 122°25'2 3.9
2017-Oct-16 22:31N 37°49' W 122°27'2 1.7
2017-Oct-16 21:12N 37°49' W 122°25'1 6.0
2017-Oct-16 21:00N 37°50' W 122°25'2 4.2
2017-Oct-16 20:30N 37°49' W 122°28'2 4.8
2017-Oct-16 20:00N 37°49' W 122°25'1 1.5
2017-Oct-16 19:30N 37°49' W 122°25'2 4.2
2017-Oct-16 19:00N 37°49' W 122°27'2 4.4
2017-Oct-16 18:30N 37°49' W 122°25'0 0.0
2017-Oct-16 02:25N 37°49' W 122°25'3 6.4
2017-Oct-16 02:00N 37°49' W 122°28'3 5.3
2017-Oct-16 01:31N 37°49' W 122°25'0 0.0
2017-Oct-16 01:01N 37°49' W 122°25'0 0.0
2017-Oct-16 00:31N 37°49' W 122°25'2 4.3
2017-Oct-16 00:01N 37°49' W 122°27'2 4.3
2017-Oct-15 23:31N 37°49' W 122°25'1 1.1
2017-Oct-15 23:01N 37°49' W 122°25'2 3.6
2017-Oct-15 22:31N 37°49' W 122°27'2 3.9
2017-Oct-15 22:01N 37°49' W 122°25'0 0.0
2017-Oct-15 21:31N 37°49' W 122°25'2 3.2
2017-Oct-15 21:01N 37°50' W 122°26'1 2.5
2017-Oct-15 20:31N 37°49' W 122°27'2 3.7
2017-Oct-15 20:00N 37°49' W 122°25'1 2.9
2017-Oct-15 19:31N 37°50' W 122°26'2 5.0
2017-Oct-15 19:01N 37°49' W 122°29'3 6.3
2017-Oct-15 18:30N 37°49' W 122°25'0 0.0
2017-Oct-15 02:23N 37°49' W 122°25'2 6.1
2017-Oct-15 02:00N 37°49' W 122°27'2 4.6
2017-Oct-15 01:30N 37°49' W 122°25'0 0.0
2017-Oct-15 01:00N 37°49' W 122°25'0 0.0
2017-Oct-15 00:30N 37°49' W 122°25'2 4.2
2017-Oct-14 23:59N 37°49' W 122°27'2 4.6
2017-Oct-14 23:30N 37°49' W 122°25'0 0.6
2017-Oct-14 23:00N 37°49' W 122°24'2 4.7
2017-Oct-14 22:30N 37°49' W 122°27'2 4.2
2017-Oct-14 22:00N 37°49' W 122°25'0 0.0
2017-Oct-14 21:25N 37°49' W 122°25'2 3.8
2017-Oct-14 21:00N 37°50' W 122°26'1 2.5
2017-Oct-14 20:30N 37°49' W 122°27'2 3.3
2017-Oct-14 19:58N 37°49' W 122°25'1 3.1
2017-Oct-14 19:30N 37°50' W 122°25'3 5.1
2017-Oct-14 19:00N 37°49' W 122°29'3 5.8
2017-Oct-14 18:27N 37°49' W 122°25'0 0.0
2017-Oct-14 02:43N 37°49' W 122°25'0 1.6
2017-Oct-14 02:30N 37°49' W 122°24'511.0
2017-Oct-14 02:01N 37°48' W 122°18'1 2.8
2017-Oct-14 01:30N 37°48' W 122°19'3 5.6
2017-Oct-14 01:01N 37°48' W 122°23'2 4.5
2017-Oct-14 00:31N 37°48' W 122°20'2 4.1
2017-Oct-14 00:01N 37°48' W 122°18'4 7.9
2017-Oct-13 23:30N 37°48' W 122°23'2 3.4
2017-Oct-13 23:01N 37°49' W 122°25'0 0.0
2017-Oct-12 22:54N 37°49' W 122°25'2 5.0
2017-Oct-12 22:30N 37°50' W 122°26'2 4.8
2017-Oct-12 22:00N 37°52' W 122°27'1 1.3
2017-Oct-12 21:30N 37°52' W 122°27'4 7.3
2017-Oct-12 21:00N 37°49' W 122°25'0 0.0
2017-Oct-12 20:30N 37°49' W 122°25'0 0.2
2017-Oct-12 20:00N 37°49' W 122°25'0 0.3
2017-Oct-12 19:30N 37°49' W 122°25'0 0.0
2017-Oct-12 19:00N 37°49' W 122°25'0 0.7
2017-Oct-12 18:30N 37°49' W 122°25'4 8.2
2017-Oct-12 18:00N 37°52' W 122°27'0 0.9
2017-Oct-12 17:30N 37°52' W 122°27'4 7.9
2017-Oct-12 17:00N 37°49' W 122°25'0 0.0
2017-Oct-12 16:30N 37°49' W 122°25'0 0.0
2017-Oct-12 16:00N 37°49' W 122°25'0 0.0
2017-Oct-12 15:30N 37°49' W 122°25'0 0.0
2017-Oct-12 15:00N 37°49' W 122°25'0 0.0
2017-Oct-12 14:30N 37°49' W 122°25'0 0.0
2017-Oct-12 02:23N 37°49' W 122°25'2 4.9
2017-Oct-12 02:00N 37°49' W 122°27'2 3.8
2017-Oct-12 01:31N 37°49' W 122°25'0 0.0
2017-Oct-12 01:00N 37°49' W 122°25'0 0.0
2017-Oct-12 00:30N 37°49' W 122°25'2 3.8
2017-Oct-12 00:00N 37°49' W 122°27'2 3.8
2017-Oct-11 23:30N 37°49' W 122°25'1 1.2
2017-Oct-11 23:00N 37°49' W 122°24'2 3.9
2017-Oct-11 22:30N 37°49' W 122°27'2 3.7
2017-Oct-11 22:00N 37°49' W 122°25'0 0.0
2017-Oct-11 21:30N 37°49' W 122°25'1 1.9
2017-Oct-11 21:01N 37°49' W 122°25'2 3.1
2017-Oct-11 20:31N 37°49' W 122°27'2 3.3
2017-Oct-11 20:00N 37°49' W 122°25'1 2.5
2017-Oct-11 19:30N 37°50' W 122°25'3 5.1
2017-Oct-11 19:01N 37°49' W 122°28'3 5.7
2017-Oct-11 18:28N 37°49' W 122°25'0 0.0
2017-Oct-11 17:58N 37°49' W 122°25'0 0.0
2017-Oct-11 17:24N 37°49' W 122°25'0 0.0
2017-Oct-11 16:58N 37°49' W 122°25'2 0.1
2017-Oct-11 00:00N 37°50' W 122°27'2 3.9
2017-Oct-10 23:30N 37°49' W 122°25'0 0.7
2017-Oct-10 23:00N 37°49' W 122°24'2 4.7
2017-Oct-10 22:30N 37°49' W 122°27'2 4.3
2017-Oct-10 22:00N 37°49' W 122°25'0 0.0
2017-Oct-10 21:30N 37°49' W 122°25'1 1.3
2017-Oct-10 21:00N 37°49' W 122°25'2 3.2
2017-Oct-10 20:30N 37°49' W 122°27'2 3.2
2017-Oct-10 20:01N 37°49' W 122°25'1 2.8
2017-Oct-10 19:31N 37°50' W 122°25'3 5.3
2017-Oct-10 19:01N 37°49' W 122°29'3 6.5
2017-Oct-10 18:30N 37°49' W 122°25'0 0.0
2017-Oct-10 02:36N 37°49' W 122°25'0 0.0
2017-Oct-10 02:30N 37°49' W 122°25'3 5.3
2017-Oct-10 02:00N 37°49' W 122°28'3 5.3
2017-Oct-10 01:30N 37°49' W 122°25'0 0.0
2017-Oct-10 01:00N 37°49' W 122°25'0 0.0
2017-Oct-10 00:30N 37°49' W 122°25'3 5.4
2017-Oct-10 00:01N 37°49' W 122°28'3 5.4
2017-Oct-09 23:30N 37°49' W 122°25'1 1.9
2017-Oct-09 23:00N 37°49' W 122°25'2 3.2
2017-Oct-09 22:31N 37°49' W 122°27'2 3.7
2017-Oct-09 22:00N 37°49' W 122°25'0 0.0
2017-Oct-09 21:30N 37°49' W 122°25'1 2.3
2017-Oct-09 21:00N 37°50' W 122°25'1 2.6
2017-Oct-09 20:30N 37°49' W 122°26'1 2.7
2017-Oct-09 20:00N 37°49' W 122°25'3 2.8
2017-Oct-09 18:57N 37°49' W 122°28'3 6.7
2017-Oct-09 18:30N 37°49' W 122°25'0 0.0
2017-Oct-09 15:29N 37°49' W 122°25'0 0.0
2017-Oct-09 06:39N 37°49' W 122°25'0 0.0
2017-Oct-09 06:30N 37°49' W 122°25'4 8.7
2017-Oct-09 06:00N 37°52' W 122°27'3 5.2
2017-Oct-09 05:30N 37°50' W 122°26'2 3.6
2017-Oct-09 05:00N 37°49' W 122°25'4 8.7
2017-Oct-09 04:30N 37°52' W 122°27'1 2.9
2017-Oct-09 04:00N 37°51' W 122°29'3 5.8
2017-Oct-09 03:30N 37°50' W 122°26'1 2.7
2017-Oct-09 03:00N 37°49' W 122°25'4 8.1
2017-Oct-09 02:30N 37°52' W 122°27'0 0.3
2017-Oct-09 02:00N 37°52' W 122°27'4 8.4
2017-Oct-09 01:30N 37°49' W 122°25'0 0.0
2017-Oct-09 01:00N 37°49' W 122°25'0 0.0
2017-Oct-09 00:30N 37°49' W 122°25'1 2.9
2017-Oct-09 00:00N 37°50' W 122°26'3 6.0
2017-Oct-08 23:30N 37°52' W 122°27'3 5.5
2017-Oct-08 23:00N 37°50' W 122°26'2 3.3
2017-Oct-08 22:30N 37°49' W 122°25'0 0.2
2017-Oct-08 22:00N 37°49' W 122°25'3 6.1
2017-Oct-08 21:30N 37°49' W 122°29'3 6.2
2017-Oct-08 21:00N 37°49' W 122°25'1 3.0
2017-Oct-08 20:30N 37°50' W 122°25'1 2.5
2017-Oct-08 20:00N 37°49' W 122°26'1 1.6
2017-Oct-08 19:30N 37°49' W 122°25'0 0.0
2017-Oct-08 02:33N 37°49' W 122°25'0 0.0
2017-Oct-08 02:30N 37°49' W 122°25'3 5.4
2017-Oct-08 02:00N 37°49' W 122°28'3 5.4
2017-Oct-08 01:30N 37°49' W 122°25'0 0.0
2017-Oct-08 01:00N 37°49' W 122°25'0 0.0
2017-Oct-08 00:30N 37°49' W 122°25'3 5.0
2017-Oct-08 00:00N 37°49' W 122°28'3 5.0
2017-Oct-07 23:30N 37°49' W 122°25'1 2.2
2017-Oct-07 23:00N 37°50' W 122°25'2 3.4
2017-Oct-07 22:30N 37°49' W 122°27'2 3.5
2017-Oct-07 22:01N 37°49' W 122°25'0 0.0
2017-Oct-07 21:30N 37°49' W 122°25'1 2.6
2017-Oct-07 21:00N 37°50' W 122°25'1 2.6
2017-Oct-07 20:30N 37°49' W 122°26'1 2.6
2017-Oct-07 20:01N 37°49' W 122°25'1 2.1
2017-Oct-07 19:30N 37°50' W 122°25'3 5.5
2017-Oct-07 19:00N 37°49' W 122°28'3 6.3
2017-Oct-07 18:30N 37°49' W 122°25'0 0.0
2017-Oct-07 03:30N 37°49' W 122°25'3 5.4
2017-Oct-07 03:00N 37°48' W 122°21'4 7.2
2017-Oct-07 02:30N 37°48' W 122°17'  
Track history (hours):
 
Tides and Currents Weather Stations Pressure Air Temp Water Temp Dewpoint Dewpoint Depression Visibility Wind Speed Wind Dir Waves Ship Positions

Oski

Owner: BLUE & GOLD FLEET, SAN FRANCISCO, CA. More information available from US FCC via Universal Licensing System and Coast Guard Vessel Documentation Center.

Last reported at 2017-Oct-17 02:27 UTC. Time now 2017-Oct-17 22:26 UTC.
Position N 37°49' W 122°25'.

Length 24 m; draft 2 m.

Type: Passenger vessel. MMSI: 366985320.

Date/timePositionNaut miles runAvg speedWind from/ knotsBaromVisibWave heightAir tempDewpointWater temp
2017-Oct-17 02:27N 37°49' W 122°25'2 5.3
2017-Oct-17 02:00N 37°49' W 122°27'2 4.7
2017-Oct-17 01:30N 37°49' W 122°25'0 0.0
2017-Oct-17 01:00N 37°49' W 122°25'0 0.0
2017-Oct-17 00:30N 37°49' W 122°25'2 4.3
2017-Oct-17 00:01N 37°49' W 122°27'2 4.3
2017-Oct-16 23:30N 37°49' W 122°25'1 1.9
2017-Oct-16 23:00N 37°49' W 122°25'2 3.9
2017-Oct-16 22:31N 37°49' W 122°27'2 1.7
2017-Oct-16 21:12N 37°49' W 122°25'1 6.0
2017-Oct-16 21:00N 37°50' W 122°25'2 4.2
2017-Oct-16 20:30N 37°49' W 122°28'2 4.8
2017-Oct-16 20:00N 37°49' W 122°25'1 1.5
2017-Oct-16 19:30N 37°49' W 122°25'2 4.2
2017-Oct-16 19:00N 37°49' W 122°27'2 4.4
2017-Oct-16 18:30N 37°49' W 122°25'0 0.0
2017-Oct-16 02:25N 37°49' W 122°25'3 6.4
2017-Oct-16 02:00N 37°49' W 122°28'3 5.3
2017-Oct-16 01:31N 37°49' W 122°25'0 0.0
2017-Oct-16 01:01N 37°49' W 122°25'0 0.0
2017-Oct-16 00:31N 37°49' W 122°25'2 4.3
2017-Oct-16 00:01N 37°49' W 122°27'2 4.3
2017-Oct-15 23:31N 37°49' W 122°25'1 1.1
2017-Oct-15 23:01N 37°49' W 122°25'2 3.6
2017-Oct-15 22:31N 37°49' W 122°27'2 3.9
2017-Oct-15 22:01N 37°49' W 122°25'0 0.0
2017-Oct-15 21:31N 37°49' W 122°25'2 3.2
2017-Oct-15 21:01N 37°50' W 122°26'1 2.5
2017-Oct-15 20:31N 37°49' W 122°27'2 3.7
2017-Oct-15 20:00N 37°49' W 122°25'1 2.9
2017-Oct-15 19:31N 37°50' W 122°26'2 5.0
2017-Oct-15 19:01N 37°49' W 122°29'3 6.3
2017-Oct-15 18:30N 37°49' W 122°25'0 0.0
2017-Oct-15 02:23N 37°49' W 122°25'2 6.1
2017-Oct-15 02:00N 37°49' W 122°27'2 4.6
2017-Oct-15 01:30N 37°49' W 122°25'0 0.0
2017-Oct-15 01:00N 37°49' W 122°25'0 0.0
2017-Oct-15 00:30N 37°49' W 122°25'2 4.2
2017-Oct-14 23:59N 37°49' W 122°27'2 4.6
2017-Oct-14 23:30N 37°49' W 122°25'0 0.6
2017-Oct-14 23:00N 37°49' W 122°24'2 4.7
2017-Oct-14 22:30N 37°49' W 122°27'2 4.2
2017-Oct-14 22:00N 37°49' W 122°25'0 0.0
2017-Oct-14 21:25N 37°49' W 122°25'2 3.8
2017-Oct-14 21:00N 37°50' W 122°26'1 2.5
2017-Oct-14 20:30N 37°49' W 122°27'2 3.3
2017-Oct-14 19:58N 37°49' W 122°25'1 3.1
2017-Oct-14 19:30N 37°50' W 122°25'3 5.1
2017-Oct-14 19:00N 37°49' W 122°29'3 5.8
2017-Oct-14 18:27N 37°49' W 122°25'0 0.0
2017-Oct-14 02:43N 37°49' W 122°25'0 1.6
2017-Oct-14 02:30N 37°49' W 122°24'511.0
2017-Oct-14 02:01N 37°48' W 122°18'1 2.8
2017-Oct-14 01:30N 37°48' W 122°19'3 5.6
2017-Oct-14 01:01N 37°48' W 122°23'2 4.5
2017-Oct-14 00:31N 37°48' W 122°20'2 4.1
2017-Oct-14 00:01N 37°48' W 122°18'4 7.9
2017-Oct-13 23:30N 37°48' W 122°23'2 3.4
2017-Oct-13 23:01N 37°49' W 122°25'0 0.0
2017-Oct-12 22:54N 37°49' W 122°25'2 5.0
2017-Oct-12 22:30N 37°50' W 122°26'2 4.8
2017-Oct-12 22:00N 37°52' W 122°27'1 1.3
2017-Oct-12 21:30N 37°52' W 122°27'4 7.3
2017-Oct-12 21:00N 37°49' W 122°25'0 0.0
2017-Oct-12 20:30N 37°49' W 122°25'0 0.2
2017-Oct-12 20:00N 37°49' W 122°25'0 0.3
2017-Oct-12 19:30N 37°49' W 122°25'0 0.0
2017-Oct-12 19:00N 37°49' W 122°25'0 0.7
2017-Oct-12 18:30N 37°49' W 122°25'4 8.2
2017-Oct-12 18:00N 37°52' W 122°27'0 0.9
2017-Oct-12 17:30N 37°52' W 122°27'4 7.9
2017-Oct-12 17:00N 37°49' W 122°25'0 0.0
2017-Oct-12 16:30N 37°49' W 122°25'0 0.0
2017-Oct-12 16:00N 37°49' W 122°25'0 0.0
2017-Oct-12 15:30N 37°49' W 122°25'0 0.0
2017-Oct-12 15:00N 37°49' W 122°25'0 0.0
2017-Oct-12 14:30N 37°49' W 122°25'0 0.0
2017-Oct-12 02:23N 37°49' W 122°25'2 4.9
2017-Oct-12 02:00N 37°49' W 122°27'2 3.8
2017-Oct-12 01:31N 37°49' W 122°25'0 0.0
2017-Oct-12 01:00N 37°49' W 122°25'0 0.0
2017-Oct-12 00:30N 37°49' W 122°25'2 3.8
2017-Oct-12 00:00N 37°49' W 122°27'2 3.8
2017-Oct-11 23:30N 37°49' W 122°25'1 1.2
2017-Oct-11 23:00N 37°49' W 122°24'2 3.9
2017-Oct-11 22:30N 37°49' W 122°27'2 3.7
2017-Oct-11 22:00N 37°49' W 122°25'0 0.0
2017-Oct-11 21:30N 37°49' W 122°25'1 1.9
2017-Oct-11 21:01N 37°49' W 122°25'2 3.1
2017-Oct-11 20:31N 37°49' W 122°27'2 3.3
2017-Oct-11 20:00N 37°49' W 122°25'1 2.5
2017-Oct-11 19:30N 37°50' W 122°25'3 5.1
2017-Oct-11 19:01N 37°49' W 122°28'3 5.7
2017-Oct-11 18:28N 37°49' W 122°25'0 0.0
2017-Oct-11 17:58N 37°49' W 122°25'0 0.0
2017-Oct-11 17:24N 37°49' W 122°25'0 0.0
2017-Oct-11 16:58N 37°49' W 122°25'2 0.1
2017-Oct-11 00:00N 37°50' W 122°27'2 3.9
2017-Oct-10 23:30N 37°49' W 122°25'0 0.7
2017-Oct-10 23:00N 37°49' W 122°24'2 4.7
2017-Oct-10 22:30N 37°49' W 122°27'2 4.3
2017-Oct-10 22:00N 37°49' W 122°25'0 0.0
2017-Oct-10 21:30N 37°49' W 122°25'1 1.3
2017-Oct-10 21:00N 37°49' W 122°25'2 3.2
2017-Oct-10 20:30N 37°49' W 122°27'2 3.2
2017-Oct-10 20:01N 37°49' W 122°25'1 2.8
2017-Oct-10 19:31N 37°50' W 122°25'3 5.3
2017-Oct-10 19:01N 37°49' W 122°29'3 6.5
2017-Oct-10 18:30N 37°49' W 122°25'0 0.0
2017-Oct-10 02:36N 37°49' W 122°25'0 0.0
2017-Oct-10 02:30N 37°49' W 122°25'3 5.3
2017-Oct-10 02:00N 37°49' W 122°28'3 5.3
2017-Oct-10 01:30N 37°49' W 122°25'0 0.0
2017-Oct-10 01:00N 37°49' W 122°25'0 0.0
2017-Oct-10 00:30N 37°49' W 122°25'3 5.4
2017-Oct-10 00:01N 37°49' W 122°28'3 5.4
2017-Oct-09 23:30N 37°49' W 122°25'1 1.9
2017-Oct-09 23:00N 37°49' W 122°25'2 3.2
2017-Oct-09 22:31N 37°49' W 122°27'2 3.7
2017-Oct-09 22:00N 37°49' W 122°25'0 0.0
2017-Oct-09 21:30N 37°49' W 122°25'1 2.3
2017-Oct-09 21:00N 37°50' W 122°25'1 2.6
2017-Oct-09 20:30N 37°49' W 122°26'1 2.7
2017-Oct-09 20:00N 37°49' W 122°25'3 2.8
2017-Oct-09 18:57N 37°49' W 122°28'3 6.7
2017-Oct-09 18:30N 37°49' W 122°25'0 0.0
2017-Oct-09 15:29N 37°49' W 122°25'0 0.0
2017-Oct-09 06:39N 37°49' W 122°25'0 0.0
2017-Oct-09 06:30N 37°49' W 122°25'4 8.7
2017-Oct-09 06:00N 37°52' W 122°27'3 5.2
2017-Oct-09 05:30N 37°50' W 122°26'2 3.6
2017-Oct-09 05:00N 37°49' W 122°25'4 8.7
2017-Oct-09 04:30N 37°52' W 122°27'1 2.9
2017-Oct-09 04:00N 37°51' W 122°29'3 5.8
2017-Oct-09 03:30N 37°50' W 122°26'1 2.7
2017-Oct-09 03:00N 37°49' W 122°25'4 8.1
2017-Oct-09 02:30N 37°52' W 122°27'0 0.3
2017-Oct-09 02:00N 37°52' W 122°27'4 8.4
2017-Oct-09 01:30N 37°49' W 122°25'0 0.0
2017-Oct-09 01:00N 37°49' W 122°25'0 0.0
2017-Oct-09 00:30N 37°49' W 122°25'1 2.9
2017-Oct-09 00:00N 37°50' W 122°26'3 6.0
2017-Oct-08 23:30N 37°52' W 122°27'3 5.5
2017-Oct-08 23:00N 37°50' W 122°26'2 3.3
2017-Oct-08 22:30N 37°49' W 122°25'0 0.2
2017-Oct-08 22:00N 37°49' W 122°25'3 6.1
2017-Oct-08 21:30N 37°49' W 122°29'3 6.2
2017-Oct-08 21:00N 37°49' W 122°25'1 3.0
2017-Oct-08 20:30N 37°50' W 122°25'1 2.5
2017-Oct-08 20:00N 37°49' W 122°26'1 1.6
2017-Oct-08 19:30N 37°49' W 122°25'0 0.0
2017-Oct-08 02:33N 37°49' W 122°25'0 0.0
2017-Oct-08 02:30N 37°49' W 122°25'3 5.4
2017-Oct-08 02:00N 37°49' W 122°28'3 5.4
2017-Oct-08 01:30N 37°49' W 122°25'0 0.0
2017-Oct-08 01:00N 37°49' W 122°25'0 0.0
2017-Oct-08 00:30N 37°49' W 122°25'3 5.0
2017-Oct-08 00:00N 37°49' W 122°28'3 5.0
2017-Oct-07 23:30N 37°49' W 122°25'1 2.2
2017-Oct-07 23:00N 37°50' W 122°25'2 3.4
2017-Oct-07 22:30N 37°49' W 122°27'2 3.5
2017-Oct-07 22:01N 37°49' W 122°25'0 0.0
2017-Oct-07 21:30N 37°49' W 122°25'1 2.6
2017-Oct-07 21:00N 37°50' W 122°25'1 2.6
2017-Oct-07 20:30N 37°49' W 122°26'1 2.6
2017-Oct-07 20:01N 37°49' W 122°25'1 2.1
2017-Oct-07 19:30N 37°50' W 122°25'3 5.5
2017-Oct-07 19:00N 37°49' W 122°28'3 6.3
2017-Oct-07 18:30N 37°49' W 122°25'0 0.0
2017-Oct-07 03:30N 37°49' W 122°25'3 5.4
2017-Oct-07 03:00N 37°48' W 122°21'4 7.2
2017-Oct-07 02:30N 37°48' W 122°17'  

Dump ship's entire track history